createdAt,value
2022-11-24T00:00:23.130Z,1006.95
2022-11-24T00:01:23.286Z,1006.93
2022-11-24T00:02:23.709Z,1006.96
2022-11-24T00:03:23.772Z,1006.96
2022-11-24T00:04:23.796Z,1006.98
2022-11-24T00:05:23.970Z,1006.99
2022-11-24T00:06:24.164Z,1006.97
2022-11-24T00:07:24.358Z,1007.02
2022-11-24T00:08:24.463Z,1007.03
2022-11-24T00:09:24.663Z,1007.03
2022-11-24T00:10:24.814Z,1007.05
2022-11-24T00:11:24.981Z,1007.02
2022-11-24T00:12:25.185Z,1007.00
2022-11-24T00:13:25.318Z,1006.96
2022-11-24T00:14:25.500Z,1006.93
2022-11-24T00:15:25.655Z,1006.96
2022-11-24T00:16:25.920Z,1006.97
2022-11-24T00:17:26.022Z,1006.93
2022-11-24T00:18:26.166Z,1006.95
2022-11-24T00:19:26.336Z,1006.94
2022-11-24T00:20:26.511Z,1006.92
2022-11-24T00:21:26.691Z,1006.91
2022-11-24T00:22:26.869Z,1006.89
2022-11-24T00:23:27.027Z,1006.92
2022-11-24T00:24:27.197Z,1006.90
2022-11-24T00:25:27.365Z,1006.93
2022-11-24T00:26:27.554Z,1006.92
2022-11-24T00:27:27.719Z,1006.91
2022-11-24T00:28:27.883Z,1006.94
2022-11-24T00:29:28.049Z,1006.92
2022-11-24T00:30:28.303Z,1006.95
2022-11-24T00:31:28.443Z,1006.90
2022-11-24T00:32:28.540Z,1006.84
2022-11-24T00:33:28.709Z,1006.90
2022-11-24T00:34:28.878Z,1006.91
2022-11-24T00:35:29.040Z,1006.87
2022-11-24T00:36:29.252Z,1006.92
2022-11-24T00:37:29.375Z,1006.87
2022-11-24T00:38:29.543Z,1006.88
2022-11-24T00:39:29.710Z,1006.91
2022-11-24T00:40:34.863Z,1006.87
2022-11-24T00:41:31.052Z,1006.90
2022-11-24T00:42:30.200Z,1006.91
2022-11-24T00:43:30.363Z,1006.94
2022-11-24T00:44:30.917Z,1006.99
2022-11-24T00:45:30.711Z,1006.92
2022-11-24T00:46:30.974Z,1006.98
2022-11-24T00:47:31.069Z,1006.99
2022-11-24T00:48:31.231Z,1007.06
2022-11-24T00:49:31.400Z,1007.06
2022-11-24T00:50:31.573Z,1007.07
2022-11-24T00:51:31.762Z,1007.10
2022-11-24T00:52:31.932Z,1007.08
2022-11-24T00:53:32.102Z,1007.11
2022-11-24T00:54:32.466Z,1007.13
2022-11-24T00:55:32.435Z,1007.13
2022-11-24T00:56:32.615Z,1007.12
2022-11-24T00:57:32.782Z,1007.13
2022-11-24T00:58:32.956Z,1007.14
2022-11-24T00:59:33.128Z,1007.06
2022-11-24T01:00:33.295Z,1007.07
2022-11-24T01:01:33.525Z,1007.08
2022-11-24T01:02:33.694Z,1007.04
2022-11-24T01:03:33.811Z,1007.01
2022-11-24T01:04:34.202Z,1007.01
2022-11-24T01:05:34.158Z,1007.07
2022-11-24T01:06:34.371Z,1007.08
2022-11-24T01:07:34.544Z,1007.13
2022-11-24T01:08:34.673Z,1007.13
2022-11-24T01:09:34.830Z,1007.13
2022-11-24T01:10:34.995Z,1007.12
2022-11-24T01:11:35.191Z,1007.11
2022-11-24T01:12:35.316Z,1007.06
2022-11-24T01:13:35.497Z,1007.06
2022-11-24T01:14:36.081Z,1007.10
2022-11-24T01:15:35.902Z,1007.06
2022-11-24T01:16:36.052Z,1007.11
2022-11-24T01:17:36.220Z,1007.09
2022-11-24T01:18:36.386Z,1007.11
2022-11-24T01:19:36.547Z,1007.15
2022-11-24T01:20:36.718Z,1007.13
2022-11-24T01:21:36.899Z,1007.21
2022-11-24T01:22:37.089Z,1007.24
2022-11-24T01:23:37.252Z,1007.24
2022-11-24T01:24:37.419Z,1007.29
2022-11-24T01:25:37.582Z,1007.32
2022-11-24T01:26:37.770Z,1007.35
2022-11-24T01:27:37.921Z,1007.33
2022-11-24T01:28:41.847Z,1007.31
2022-11-24T01:29:39.263Z,1007.29
2022-11-24T01:30:38.508Z,1007.30
2022-11-24T01:31:38.612Z,1007.25
2022-11-24T01:32:38.790Z,1007.24
2022-11-24T01:33:38.972Z,1007.27
2022-11-24T01:34:39.141Z,1007.35
2022-11-24T01:35:39.309Z,1007.31
2022-11-24T01:36:39.476Z,1007.23
2022-11-24T01:37:39.658Z,1007.25
2022-11-24T01:38:39.833Z,1007.29
2022-11-24T01:39:39.993Z,1007.25
2022-11-24T01:40:40.162Z,1007.22
2022-11-24T01:41:40.332Z,1007.28
2022-11-24T01:42:40.505Z,1007.25
2022-11-24T01:43:40.703Z,1007.26
2022-11-24T01:44:40.860Z,1007.26
2022-11-24T01:45:41.340Z,1007.28
2022-11-24T01:46:41.196Z,1007.30
2022-11-24T01:47:41.400Z,1007.30
2022-11-24T01:48:41.527Z,1007.27
2022-11-24T01:49:41.704Z,1007.32
2022-11-24T01:50:41.866Z,1007.29
2022-11-24T01:51:42.039Z,1007.32
2022-11-24T01:52:42.241Z,1007.31
2022-11-24T01:53:42.376Z,1007.36
2022-11-24T01:54:42.545Z,1007.34
2022-11-24T01:55:42.716Z,1007.34
2022-11-24T01:56:42.885Z,1007.36
2022-11-24T01:57:43.095Z,1007.38
2022-11-24T01:58:43.213Z,1007.33
2022-11-24T01:59:43.378Z,1007.34
2022-11-24T02:00:43.551Z,1007.32
2022-11-24T02:01:43.849Z,1007.37
2022-11-24T02:02:43.985Z,1007.41
2022-11-24T02:03:44.054Z,1007.39
2022-11-24T02:04:44.216Z,1007.41
2022-11-24T02:05:44.389Z,1007.43
2022-11-24T02:06:44.561Z,1007.42
2022-11-24T02:07:44.868Z,1007.40
2022-11-24T02:08:44.918Z,1007.42
2022-11-24T02:09:45.079Z,1007.43
2022-11-24T02:10:45.240Z,1007.37
2022-11-24T02:11:45.405Z,1007.38
2022-11-24T02:12:45.588Z,1007.44
2022-11-24T02:13:45.773Z,1007.41
2022-11-24T02:14:45.942Z,1007.46
2022-11-24T02:15:46.265Z,1007.49
2022-11-24T02:16:46.268Z,1007.49
2022-11-24T02:17:46.442Z,1007.47
2022-11-24T02:18:46.623Z,1007.47
2022-11-24T02:19:46.785Z,1007.46
2022-11-24T02:20:46.949Z,1007.45
2022-11-24T02:21:47.120Z,1007.46
2022-11-24T02:22:47.284Z,1007.40
2022-11-24T02:23:47.470Z,1007.43
2022-11-24T02:24:47.643Z,1007.44
2022-11-24T02:25:47.805Z,1007.45
2022-11-24T02:26:47.973Z,1007.46
2022-11-24T02:27:52.357Z,1007.44
2022-11-24T02:28:49.302Z,1007.45
2022-11-24T02:29:48.479Z,1007.45
2022-11-24T02:30:48.667Z,1007.45
2022-11-24T02:31:48.810Z,1007.43
2022-11-24T02:32:48.991Z,1007.39
2022-11-24T02:33:49.161Z,1007.38
2022-11-24T02:34:49.342Z,1007.40
2022-11-24T02:35:49.514Z,1007.37
2022-11-24T02:36:49.674Z,1007.42
2022-11-24T02:37:49.842Z,1007.49
2022-11-24T02:38:50.036Z,1007.47
2022-11-24T02:39:50.211Z,1007.53
2022-11-24T02:40:50.339Z,1007.54
2022-11-24T02:41:50.512Z,1007.54
2022-11-24T02:42:50.690Z,1007.54
2022-11-24T02:43:50.906Z,1007.56
2022-11-24T02:44:51.015Z,1007.56
2022-11-24T02:45:51.214Z,1007.58
2022-11-24T02:46:51.343Z,1007.58
2022-11-24T02:47:51.535Z,1007.54
2022-11-24T02:48:51.687Z,1007.51
2022-11-24T02:49:51.848Z,1007.56
2022-11-24T02:50:52.026Z,1007.51
2022-11-24T02:51:52.185Z,1007.51
2022-11-24T02:52:52.367Z,1007.48
2022-11-24T02:53:52.536Z,1007.47
2022-11-24T02:54:52.699Z,1007.51
2022-11-24T02:55:52.858Z,1007.51
2022-11-24T02:56:53.016Z,1007.50
2022-11-24T02:57:53.198Z,1007.53
2022-11-24T02:58:53.366Z,1007.53
2022-11-24T02:59:53.527Z,1007.59
2022-11-24T03:00:53.702Z,1007.66
2022-11-24T03:01:53.944Z,1007.75
2022-11-24T03:02:54.169Z,1007.75
2022-11-24T03:03:54.220Z,1007.72
2022-11-24T03:04:54.379Z,1007.71
2022-11-24T03:05:54.542Z,1007.65
2022-11-24T03:06:54.740Z,1007.63
2022-11-24T03:07:54.951Z,1007.66
2022-11-24T03:08:55.039Z,1007.68
2022-11-24T03:09:55.201Z,1007.65
2022-11-24T03:11:02.397Z,1007.67
2022-11-24T03:11:55.548Z,1007.64
2022-11-24T03:12:55.722Z,1007.66
2022-11-24T03:13:55.907Z,1007.66
2022-11-24T03:14:56.090Z,1007.68
2022-11-24T03:15:56.285Z,1007.69
2022-11-24T03:16:56.441Z,1007.69
2022-11-24T03:17:56.604Z,1007.67
2022-11-24T03:18:56.771Z,1007.62
2022-11-24T03:20:00.229Z,1007.66
2022-11-24T03:20:58.134Z,1007.64
2022-11-24T03:21:57.276Z,1007.65
2022-11-24T03:22:57.442Z,1007.65
2022-11-24T03:23:57.610Z,1007.66
2022-11-24T03:24:57.772Z,1007.65
2022-11-24T03:25:57.952Z,1007.66
2022-11-24T03:26:58.135Z,1007.66
2022-11-24T03:27:58.303Z,1007.65
2022-11-24T03:28:58.463Z,1007.65
2022-11-24T03:29:58.624Z,1007.66
2022-11-24T03:30:58.877Z,1007.68
2022-11-24T03:31:58.950Z,1007.73
2022-11-24T03:32:59.142Z,1007.74
2022-11-24T03:33:59.286Z,1007.73
2022-11-24T03:34:59.453Z,1007.76
2022-11-24T03:35:59.633Z,1007.78
2022-11-24T03:36:59.797Z,1007.79
2022-11-24T03:37:59.960Z,1007.78
2022-11-24T03:39:00.124Z,1007.76
2022-11-24T03:40:00.293Z,1007.76
2022-11-24T03:41:00.477Z,1007.79
2022-11-24T03:42:00.645Z,1007.78
2022-11-24T03:43:00.816Z,1007.77
2022-11-24T03:44:00.977Z,1007.81
2022-11-24T03:45:16.708Z,1007.78
2022-11-24T03:46:02.348Z,1007.77
2022-11-24T03:47:01.491Z,1007.78
2022-11-24T03:48:01.655Z,1007.77
2022-11-24T03:49:01.820Z,1007.77
2022-11-24T03:50:01.981Z,1007.79
2022-11-24T03:51:02.156Z,1007.81
2022-11-24T03:52:07.618Z,1007.79
2022-11-24T03:53:03.494Z,1007.81
2022-11-24T03:54:02.669Z,1007.78
2022-11-24T03:55:02.839Z,1007.77
2022-11-24T03:56:03.014Z,1007.77
2022-11-24T03:57:03.177Z,1007.78
2022-11-24T03:58:03.350Z,1007.76
2022-11-24T03:59:03.517Z,1007.74
2022-11-24T04:00:03.681Z,1007.75
2022-11-24T04:01:03.880Z,1007.75
2022-11-24T04:02:04.036Z,1007.67
2022-11-24T04:03:04.176Z,1007.69
2022-11-24T04:04:04.331Z,1007.75
2022-11-24T04:05:04.503Z,1007.84
2022-11-24T04:06:04.677Z,1007.94
2022-11-24T04:07:04.842Z,1007.99
2022-11-24T04:08:05.002Z,1007.92
2022-11-24T04:09:05.164Z,1007.85
2022-11-24T04:10:05.331Z,1007.88
2022-11-24T04:11:05.513Z,1007.88
2022-11-24T04:12:05.678Z,1007.88
2022-11-24T04:13:05.833Z,1007.93
2022-11-24T04:14:10.540Z,1007.92
2022-11-24T04:15:07.185Z,1007.85
2022-11-24T04:16:06.417Z,1007.89
2022-11-24T04:17:06.554Z,1007.88
2022-11-24T04:18:06.722Z,1007.92
2022-11-24T04:19:06.904Z,1007.92
2022-11-24T04:20:07.063Z,1007.96
2022-11-24T04:21:07.248Z,1008.00
2022-11-24T04:22:07.408Z,1008.00
2022-11-24T04:23:07.575Z,1007.99
2022-11-24T04:24:07.737Z,1008.08
2022-11-24T04:25:07.896Z,1008.16
2022-11-24T04:26:08.070Z,1008.15
2022-11-24T04:27:08.236Z,1008.18
2022-11-24T04:28:08.396Z,1008.18
2022-11-24T04:29:08.560Z,1008.22
2022-11-24T04:30:08.734Z,1008.22
2022-11-24T04:31:08.984Z,1008.25
2022-11-24T04:32:09.068Z,1008.30
2022-11-24T04:33:09.236Z,1008.29
2022-11-24T04:34:09.397Z,1008.30
2022-11-24T04:35:09.560Z,1008.31
2022-11-24T04:36:09.733Z,1008.30
2022-11-24T04:37:09.889Z,1008.32
2022-11-24T04:38:10.086Z,1008.32
2022-11-24T04:39:23.849Z,1008.33
2022-11-24T04:40:11.397Z,1008.35
2022-11-24T04:41:10.600Z,1008.40
2022-11-24T04:42:10.760Z,1008.33
2022-11-24T04:43:10.923Z,1008.32
2022-11-24T04:44:11.086Z,1008.37
2022-11-24T04:45:11.252Z,1008.30
2022-11-24T04:46:11.518Z,1008.30
2022-11-24T04:47:11.603Z,1008.33
2022-11-24T04:48:11.762Z,1008.34
2022-11-24T04:49:11.937Z,1008.31
2022-11-24T04:50:12.088Z,1008.35
2022-11-24T04:51:12.285Z,1008.40
2022-11-24T04:52:12.415Z,1008.41
2022-11-24T04:53:12.583Z,1008.41
2022-11-24T04:54:12.755Z,1008.42
2022-11-24T04:55:12.919Z,1008.43
2022-11-24T04:56:13.110Z,1008.49
2022-11-24T04:57:13.242Z,1008.54
2022-11-24T04:58:13.402Z,1008.51
2022-11-24T04:59:13.573Z,1008.59
2022-11-24T05:00:13.721Z,1008.57
2022-11-24T05:01:13.962Z,1008.58
2022-11-24T05:02:14.127Z,1008.55
2022-11-24T05:03:14.262Z,1008.60
2022-11-24T05:04:14.515Z,1008.61
2022-11-24T05:05:14.582Z,1008.64
2022-11-24T05:06:14.782Z,1008.61
2022-11-24T05:07:18.466Z,1008.63
2022-11-24T05:08:15.047Z,1008.58
2022-11-24T05:09:15.201Z,1008.61
2022-11-24T05:10:15.378Z,1008.61
2022-11-24T05:11:15.595Z,1008.62
2022-11-24T05:12:15.718Z,1008.63
2022-11-24T05:13:15.871Z,1008.64
2022-11-24T05:14:16.039Z,1008.59
2022-11-24T05:15:16.207Z,1008.63
2022-11-24T05:16:16.473Z,1008.67
2022-11-24T05:17:16.558Z,1008.68
2022-11-24T05:18:16.731Z,1008.69
2022-11-24T05:19:16.896Z,1008.68
2022-11-24T05:20:17.062Z,1008.70
2022-11-24T05:21:17.237Z,1008.69
2022-11-24T05:22:17.420Z,1008.71
2022-11-24T05:23:17.577Z,1008.72
2022-11-24T05:24:17.746Z,1008.75
2022-11-24T05:25:17.905Z,1008.78
2022-11-24T05:26:18.071Z,1008.75
2022-11-24T05:27:18.254Z,1008.76
2022-11-24T05:28:18.412Z,1008.74
2022-11-24T05:29:18.575Z,1008.76
2022-11-24T05:30:18.745Z,1008.79
2022-11-24T05:31:18.998Z,1008.80
2022-11-24T05:32:19.119Z,1008.87
2022-11-24T05:33:19.395Z,1008.85
2022-11-24T05:34:19.442Z,1008.85
2022-11-24T05:35:19.612Z,1008.81
2022-11-24T05:36:19.783Z,1008.84
2022-11-24T05:37:19.962Z,1008.86
2022-11-24T05:38:20.122Z,1008.90
2022-11-24T05:39:20.284Z,1008.92
2022-11-24T05:40:20.453Z,1008.94
2022-11-24T05:41:20.620Z,1008.94
2022-11-24T05:42:20.799Z,1008.95
2022-11-24T05:43:20.953Z,1008.94
2022-11-24T05:44:21.118Z,1008.93
2022-11-24T05:45:21.291Z,1008.94
2022-11-24T05:46:21.488Z,1008.96
2022-11-24T05:47:21.637Z,1008.98
2022-11-24T05:48:21.804Z,1008.97
2022-11-24T05:49:21.963Z,1008.96
2022-11-24T05:50:22.115Z,1008.95
2022-11-24T05:51:22.290Z,1008.98
2022-11-24T05:52:22.455Z,1008.94
2022-11-24T05:53:22.627Z,1008.98
2022-11-24T05:54:22.796Z,1008.97
2022-11-24T05:55:22.953Z,1008.95
2022-11-24T05:56:23.117Z,1008.93
2022-11-24T05:57:23.531Z,1008.97
2022-11-24T05:58:23.501Z,1008.95
2022-11-24T05:59:23.640Z,1008.93
2022-11-24T06:00:23.790Z,1008.98
2022-11-24T06:01:23.956Z,1008.98
2022-11-24T06:02:24.215Z,1009.00
2022-11-24T06:03:24.298Z,1009.00
2022-11-24T06:04:24.456Z,1009.05
2022-11-24T06:05:24.633Z,1009.04
2022-11-24T06:06:24.798Z,1009.07
2022-11-24T06:07:24.966Z,1009.11
2022-11-24T06:08:29.651Z,1009.09
2022-11-24T06:09:26.320Z,1009.15
2022-11-24T06:10:25.513Z,1009.14
2022-11-24T06:11:25.684Z,1009.15
2022-11-24T06:12:25.844Z,1009.15
2022-11-24T06:13:26.058Z,1009.20
2022-11-24T06:14:26.169Z,1009.21
2022-11-24T06:15:26.367Z,1009.21
2022-11-24T06:16:26.658Z,1009.22
2022-11-24T06:17:26.704Z,1009.23
2022-11-24T06:18:26.869Z,1009.26
2022-11-24T06:19:27.029Z,1009.23
2022-11-24T06:20:32.334Z,1009.28
2022-11-24T06:21:28.362Z,1009.29
2022-11-24T06:22:27.567Z,1009.30
2022-11-24T06:23:27.732Z,1009.26
2022-11-24T06:24:27.885Z,1009.27
2022-11-24T06:25:28.060Z,1009.25
2022-11-24T06:26:28.211Z,1009.28
2022-11-24T06:27:28.402Z,1009.29
2022-11-24T06:28:28.550Z,1009.31
2022-11-24T06:29:28.744Z,1009.34
2022-11-24T06:30:28.893Z,1009.33
2022-11-24T06:31:29.074Z,1009.35
2022-11-24T06:32:29.250Z,1009.35
2022-11-24T06:33:29.402Z,1009.31
2022-11-24T06:34:29.573Z,1009.32
2022-11-24T06:35:29.744Z,1009.33
2022-11-24T06:36:29.902Z,1009.33
2022-11-24T06:37:30.094Z,1009.37
2022-11-24T06:38:30.272Z,1009.36
2022-11-24T06:39:30.431Z,1009.37
2022-11-24T06:40:30.594Z,1009.41
2022-11-24T06:41:30.762Z,1009.44
2022-11-24T06:42:30.916Z,1009.46
2022-11-24T06:43:31.112Z,1009.45
2022-11-24T06:44:31.491Z,1009.48
2022-11-24T06:45:31.459Z,1009.48
2022-11-24T06:46:31.606Z,1009.49
2022-11-24T06:47:31.774Z,1009.48
2022-11-24T06:48:31.928Z,1009.48
2022-11-24T06:49:32.096Z,1009.48
2022-11-24T06:50:33.832Z,1009.49
2022-11-24T06:51:32.436Z,1009.52
2022-11-24T06:52:32.611Z,1009.55
2022-11-24T06:53:32.777Z,1009.52
2022-11-24T06:54:33.231Z,1009.54
2022-11-24T06:55:33.117Z,1009.53
2022-11-24T06:56:33.267Z,1009.56
2022-11-24T06:57:33.458Z,1009.57
2022-11-24T06:58:33.621Z,1009.59
2022-11-24T06:59:33.786Z,1009.58
2022-11-24T07:00:33.947Z,1009.62
2022-11-24T07:01:34.189Z,1009.61
2022-11-24T07:02:34.380Z,1009.61
2022-11-24T07:03:34.497Z,1009.58
2022-11-24T07:04:34.885Z,1009.62
2022-11-24T07:05:34.799Z,1009.63
2022-11-24T07:06:34.960Z,1009.59
2022-11-24T07:07:35.213Z,1009.68
2022-11-24T07:08:35.288Z,1009.66
2022-11-24T07:09:35.459Z,1009.65
2022-11-24T07:10:35.632Z,1009.68
2022-11-24T07:11:35.799Z,1009.66
2022-11-24T07:12:35.990Z,1009.68
2022-11-24T07:13:36.165Z,1009.66
2022-11-24T07:14:36.664Z,1009.65
2022-11-24T07:15:36.491Z,1009.64
2022-11-24T07:16:36.722Z,1009.64
2022-11-24T07:17:36.852Z,1009.72
2022-11-24T07:18:36.997Z,1009.77
2022-11-24T07:19:37.186Z,1009.77
2022-11-24T07:20:37.371Z,1009.77
2022-11-24T07:21:37.557Z,1009.74
2022-11-24T07:22:37.746Z,1009.76
2022-11-24T07:23:37.905Z,1009.80
2022-11-24T07:24:38.054Z,1009.77
2022-11-24T07:25:38.238Z,1009.85
2022-11-24T07:26:38.427Z,1009.86
2022-11-24T07:27:38.605Z,1009.92
2022-11-24T07:28:38.822Z,1009.91
2022-11-24T07:29:38.978Z,1009.93
2022-11-24T07:30:39.161Z,1009.94
2022-11-24T07:31:39.421Z,1009.95
2022-11-24T07:32:39.495Z,1009.96
2022-11-24T07:33:39.704Z,1010.00
2022-11-24T07:34:39.837Z,1009.97
2022-11-24T07:35:40.025Z,1009.98
2022-11-24T07:36:40.205Z,1010.02
2022-11-24T07:37:40.386Z,1009.95
2022-11-24T07:38:40.596Z,1010.00
2022-11-24T07:39:40.743Z,1010.03
2022-11-24T07:40:40.936Z,1010.03
2022-11-24T07:41:41.087Z,1010.07
2022-11-24T07:42:41.227Z,1010.06
2022-11-24T07:43:41.435Z,1010.09
2022-11-24T07:44:41.580Z,1010.05
2022-11-24T07:45:41.771Z,1010.02
2022-11-24T07:46:41.937Z,1010.08
2022-11-24T07:47:42.118Z,1010.07
2022-11-24T07:48:42.308Z,1010.04
2022-11-24T07:49:42.459Z,1010.00
2022-11-24T07:50:42.647Z,1010.02
2022-11-24T07:51:42.822Z,1010.01
2022-11-24T07:52:43.004Z,1010.03
2022-11-24T07:53:43.198Z,1009.97
2022-11-24T07:54:43.340Z,1009.98
2022-11-24T07:55:43.529Z,1010.01
2022-11-24T07:56:43.700Z,1010.07
2022-11-24T07:57:43.880Z,1010.04
2022-11-24T07:58:48.345Z,1010.06
2022-11-24T07:59:45.229Z,1010.04
2022-11-24T08:00:44.390Z,1010.03
2022-11-24T08:01:44.653Z,1010.04
2022-11-24T08:02:44.741Z,1010.10
2022-11-24T08:03:45.037Z,1010.08
2022-11-24T08:04:45.099Z,1010.12
2022-11-24T08:06:16.211Z,1010.09
2022-11-24T08:06:47.613Z,1010.08
2022-11-24T08:07:45.659Z,1010.18
2022-11-24T08:08:45.784Z,1010.18
2022-11-24T08:09:45.964Z,1010.17
2022-11-24T08:10:46.137Z,1010.17
2022-11-24T08:11:46.334Z,1010.20
2022-11-24T08:12:46.489Z,1010.21
2022-11-24T08:13:46.683Z,1010.20
2022-11-24T08:14:46.829Z,1010.18
2022-11-24T08:15:47.019Z,1010.19
2022-11-24T08:16:47.275Z,1010.19
2022-11-24T08:17:47.364Z,1010.20
2022-11-24T08:18:47.554Z,1010.16
2022-11-24T08:19:47.753Z,1010.20
2022-11-24T08:20:47.893Z,1010.18
2022-11-24T08:21:48.082Z,1010.17
2022-11-24T08:22:48.268Z,1010.19
2022-11-24T08:23:48.462Z,1010.19
2022-11-24T08:24:48.646Z,1010.22
2022-11-24T08:25:51.748Z,1010.21
2022-11-24T08:26:49.957Z,1010.29
2022-11-24T08:27:49.155Z,1010.28
2022-11-24T08:28:49.308Z,1010.27
2022-11-24T08:29:49.505Z,1010.25
2022-11-24T08:30:49.645Z,1010.28
2022-11-24T08:31:49.874Z,1010.34
2022-11-24T08:32:49.995Z,1010.35
2022-11-24T08:33:50.190Z,1010.37
2022-11-24T08:34:50.340Z,1010.35
2022-11-24T08:35:50.516Z,1010.36
2022-11-24T08:36:50.696Z,1010.41
2022-11-24T08:37:50.894Z,1010.45
2022-11-24T08:38:51.130Z,1010.48
2022-11-24T08:39:51.227Z,1010.50
2022-11-24T08:40:51.424Z,1010.43
2022-11-24T08:41:51.578Z,1010.46
2022-11-24T08:42:51.767Z,1010.49
2022-11-24T08:43:51.890Z,1010.48
2022-11-24T08:44:58.931Z,1010.41
2022-11-24T08:45:53.282Z,1010.38
2022-11-24T08:46:52.377Z,1010.36
2022-11-24T08:47:52.567Z,1010.39
2022-11-24T08:48:52.733Z,1010.38
2022-11-24T08:49:52.894Z,1010.36
2022-11-24T08:50:53.067Z,1010.34
2022-11-24T08:51:53.227Z,1010.42
2022-11-24T08:52:53.472Z,1010.41
2022-11-24T08:53:53.597Z,1010.44
2022-11-24T08:54:53.781Z,1010.41
2022-11-24T08:55:53.949Z,1010.39
2022-11-24T08:56:54.139Z,1010.44
2022-11-24T08:57:54.321Z,1010.43
2022-11-24T08:58:54.572Z,1010.44
2022-11-24T08:59:54.641Z,1010.45
2022-11-24T09:00:54.795Z,1010.42
2022-11-24T09:01:54.987Z,1010.42
2022-11-24T09:02:55.152Z,1010.46
2022-11-24T09:03:55.398Z,1010.48
2022-11-24T09:04:55.498Z,1010.44
2022-11-24T09:05:55.642Z,1010.45
2022-11-24T09:06:55.783Z,1010.44
2022-11-24T09:07:56.077Z,1010.49
2022-11-24T09:08:56.167Z,1010.52
2022-11-24T09:09:56.318Z,1010.56
2022-11-24T09:10:56.504Z,1010.55
2022-11-24T09:12:03.672Z,1010.56
2022-11-24T09:12:56.851Z,1010.54
2022-11-24T09:13:57.019Z,1010.60
2022-11-24T09:14:57.167Z,1010.61
2022-11-24T09:15:57.328Z,1010.61
2022-11-24T09:16:57.538Z,1010.57
2022-11-24T09:17:57.680Z,1010.58
2022-11-24T09:18:57.855Z,1010.59
2022-11-24T09:19:58.008Z,1010.57
2022-11-24T09:20:58.178Z,1010.55
2022-11-24T09:21:58.364Z,1010.55
2022-11-24T09:22:58.537Z,1010.55
2022-11-24T09:23:58.729Z,1010.60
2022-11-24T09:24:58.885Z,1010.52
2022-11-24T09:25:59.086Z,1010.58
2022-11-24T09:26:59.251Z,1010.58
2022-11-24T09:27:59.420Z,1010.58
2022-11-24T09:28:59.611Z,1010.57
2022-11-24T09:29:59.743Z,1010.60
2022-11-24T09:30:59.963Z,1010.61
2022-11-24T09:32:06.312Z,1010.67
2022-11-24T09:33:01.254Z,1010.67
2022-11-24T09:34:00.420Z,1010.69
2022-11-24T09:35:00.562Z,1010.68
2022-11-24T09:36:00.731Z,1010.70
2022-11-24T09:37:00.905Z,1010.72
2022-11-24T09:38:01.077Z,1010.76
2022-11-24T09:39:01.263Z,1010.70
2022-11-24T09:40:01.435Z,1010.74
2022-11-24T09:41:01.616Z,1010.69
2022-11-24T09:42:01.772Z,1010.67
2022-11-24T09:43:01.937Z,1010.62
2022-11-24T09:44:02.123Z,1010.58
2022-11-24T09:45:02.287Z,1010.65
2022-11-24T09:46:06.467Z,1010.59
2022-11-24T09:47:02.653Z,1010.63
2022-11-24T09:48:02.800Z,1010.64
2022-11-24T09:49:02.976Z,1010.65
2022-11-24T09:50:03.152Z,1010.62
2022-11-24T09:51:03.313Z,1010.61
2022-11-24T09:52:03.475Z,1010.64
2022-11-24T09:53:03.628Z,1010.62
2022-11-24T09:54:03.825Z,1010.64
2022-11-24T09:55:03.974Z,1010.66
2022-11-24T09:56:04.165Z,1010.71
2022-11-24T09:57:04.316Z,1010.65
2022-11-24T09:58:04.500Z,1010.70
2022-11-24T09:59:04.682Z,1010.67
2022-11-24T10:00:04.830Z,1010.68
2022-11-24T10:01:05.070Z,1010.64
2022-11-24T10:02:05.228Z,1010.67
2022-11-24T10:03:05.362Z,1010.63
2022-11-24T10:04:06.704Z,1010.65
2022-11-24T10:05:05.794Z,1010.68
2022-11-24T10:06:05.865Z,1010.65
2022-11-24T10:07:06.063Z,1010.70
2022-11-24T10:08:06.215Z,1010.71
2022-11-24T10:09:06.373Z,1010.69
2022-11-24T10:10:06.544Z,1010.69
2022-11-24T10:11:06.703Z,1010.71
2022-11-24T10:12:06.866Z,1010.70
2022-11-24T10:13:07.028Z,1010.76
2022-11-24T10:14:07.178Z,1010.76
2022-11-24T10:15:07.379Z,1010.78
2022-11-24T10:16:07.571Z,1010.80
2022-11-24T10:17:07.716Z,1010.81
2022-11-24T10:18:11.889Z,1010.82
2022-11-24T10:19:09.042Z,1010.79
2022-11-24T10:20:08.205Z,1010.78
2022-11-24T10:21:08.390Z,1010.78
2022-11-24T10:22:08.552Z,1010.81
2022-11-24T10:23:08.720Z,1010.81
2022-11-24T10:24:08.881Z,1010.83
2022-11-24T10:25:09.066Z,1010.83
2022-11-24T10:26:09.202Z,1010.85
2022-11-24T10:27:09.404Z,1010.84
2022-11-24T10:28:09.547Z,1010.91
2022-11-24T10:29:09.731Z,1010.91
2022-11-24T10:30:09.886Z,1010.93
2022-11-24T10:31:10.135Z,1010.90
2022-11-24T10:32:10.268Z,1010.85
2022-11-24T10:33:10.417Z,1010.83
2022-11-24T10:34:10.558Z,1010.81
2022-11-24T10:35:10.736Z,1010.82
2022-11-24T10:36:10.886Z,1010.85
2022-11-24T10:37:11.116Z,1010.86
2022-11-24T10:38:11.247Z,1010.88
2022-11-24T10:39:11.438Z,1010.83
2022-11-24T10:40:33.024Z,1010.87
2022-11-24T10:41:12.775Z,1010.84
2022-11-24T10:42:11.946Z,1010.91
2022-11-24T10:43:12.091Z,1010.95
2022-11-24T10:44:12.247Z,1010.94
2022-11-24T10:45:12.439Z,1010.96
2022-11-24T10:46:12.638Z,1010.93
2022-11-24T10:47:12.773Z,1010.89
2022-11-24T10:48:12.919Z,1010.90
2022-11-24T10:49:13.119Z,1010.88
2022-11-24T10:50:13.269Z,1010.92
2022-11-24T10:51:13.707Z,1010.98
2022-11-24T10:52:13.609Z,1010.97
2022-11-24T10:53:13.819Z,1010.97
2022-11-24T10:54:13.960Z,1010.93
2022-11-24T10:55:14.149Z,1010.91
2022-11-24T10:56:14.329Z,1010.92
2022-11-24T10:57:14.493Z,1010.90
2022-11-24T10:58:14.644Z,1010.96
2022-11-24T10:59:14.823Z,1010.94
2022-11-24T11:00:15.158Z,1010.94
2022-11-24T11:01:15.284Z,1010.93
2022-11-24T11:02:15.367Z,1010.92
2022-11-24T11:03:15.495Z,1010.92
2022-11-24T11:04:15.672Z,1010.89
2022-11-24T11:05:16.094Z,1010.89
2022-11-24T11:06:16.022Z,1010.95
2022-11-24T11:07:16.264Z,1010.92
2022-11-24T11:08:16.388Z,1010.90
2022-11-24T11:09:16.562Z,1010.87
2022-11-24T11:10:16.788Z,1010.87
2022-11-24T11:11:16.883Z,1010.90
2022-11-24T11:12:45.877Z,1010.86
2022-11-24T11:13:18.217Z,1010.86
2022-11-24T11:14:17.379Z,1010.88
2022-11-24T11:15:17.551Z,1010.87
2022-11-24T11:16:17.756Z,1010.93
2022-11-24T11:17:17.893Z,1010.91
2022-11-24T11:18:18.039Z,1010.91
2022-11-24T11:19:47.278Z,1010.92
2022-11-24T11:20:19.371Z,1010.93
2022-11-24T11:21:18.585Z,1010.99
2022-11-24T11:22:18.770Z,1011.00
2022-11-24T11:23:18.946Z,1011.06
2022-11-24T11:24:19.111Z,1011.00
2022-11-24T11:25:19.300Z,1011.03
2022-11-24T11:26:19.436Z,1011.03
2022-11-24T11:27:19.616Z,1011.02
2022-11-24T11:28:19.746Z,1010.99
2022-11-24T11:31:22.387Z,1010.92
2022-11-24T11:34:28.491Z,1010.98
2022-11-24T11:35:21.947Z,1011.02
2022-11-24T11:36:21.108Z,1011.01
2022-11-24T11:37:21.296Z,1011.01
2022-11-24T11:38:21.433Z,1010.96
2022-11-24T11:39:21.593Z,1010.98
2022-11-24T11:40:21.747Z,1010.95
2022-11-24T11:41:21.941Z,1010.97
2022-11-24T11:42:53.890Z,1010.99
2022-11-24T11:43:23.275Z,1011.00
2022-11-24T11:44:22.455Z,1010.98
2022-11-24T11:45:22.665Z,1011.00
2022-11-24T11:46:22.954Z,1010.99
2022-11-24T11:47:22.951Z,1011.01
2022-11-24T11:48:23.103Z,1011.04
2022-11-24T11:49:23.277Z,1011.05
2022-11-24T11:50:23.536Z,1011.05
2022-11-24T11:51:24.319Z,1011.07
2022-11-24T11:52:23.778Z,1011.08
2022-11-24T11:53:23.931Z,1011.08
2022-11-24T11:54:24.094Z,1011.09
2022-11-24T11:55:24.282Z,1011.04
2022-11-24T11:56:24.450Z,1011.04
2022-11-24T11:57:24.622Z,1011.06
2022-11-24T11:58:24.794Z,1011.05
2022-11-24T11:59:24.954Z,1011.08
2022-11-24T12:00:25.143Z,1011.05
2022-11-24T12:01:25.315Z,1011.05
2022-11-24T12:02:25.629Z,1011.05
2022-11-24T12:03:25.751Z,1011.09
2022-11-24T12:04:25.793Z,1011.06
2022-11-24T12:05:26.001Z,1011.06
2022-11-24T12:06:26.133Z,1011.03
2022-11-24T12:07:26.341Z,1011.04
2022-11-24T12:08:26.465Z,1011.04
2022-11-24T12:09:26.627Z,1011.02
2022-11-24T12:10:26.803Z,1011.05
2022-11-24T12:11:27.015Z,1011.06